Time;durP1;ratioP1;P1;durP2;ratioP2;P2;SDS_P1;SDS_P2;PMS_P1;PMS_P2;Temp;Humidity;BMP_temperature;BMP_pressure;BME280_temperature;BME280_humidity;BME280_pressure;Samples;Min_cycle;Max_cycle;Signal;HPM_P1;HPM_P2
2022/11/08 00:02:47;;;;;;;6.63;5.60;;;;;;;9.07;100.00;98416.00;4151316;28;20713;-45
2022/11/08 00:04:49;;;;;;;5.32;4.82;;;;;;;8.99;100.00;98416.38;4154554;28;20864;-45
2022/11/08 00:14:01;;;;;;;5.20;4.50;;;;;;;8.96;100.00;98414.97;4146850;28;20801;-45
2022/11/08 00:16:03;;;;;;;5.78;5.32;;;;;;;8.78;100.00;98417.03;4166585;28;20551;-44
2022/11/08 00:18:06;;;;;;;6.38;5.25;;;;;;;8.79;100.00;98415.97;4151402;28;20244;-45
2022/11/08 00:20:08;;;;;;;7.40;5.43;;;;;;;8.73;100.00;98408.75;4152758;28;20887;-44
2022/11/08 00:22:11;;;;;;;10.30;5.97;;;;;;;8.75;100.00;98412.09;4155552;28;20231;-45
2022/11/08 00:24:12;;;;;;;6.20;5.60;;;;;;;8.70;100.00;98409.25;4149006;28;22761;-44
2022/11/08 00:26:14;;;;;;;17.10;5.72;;;;;;;8.78;100.00;98408.84;4150508;28;20209;-45
2022/11/08 00:28:16;;;;;;;6.03;5.15;;;;;;;8.85;100.00;98423.19;4149303;28;20774;-46
2022/11/08 00:30:18;;;;;;;6.60;6.00;;;;;;;8.70;100.00;98409.25;4151293;28;20208;-45
2022/11/08 00:32:22;;;;;;;6.10;5.15;;;;;;;8.63;100.00;98411.28;4164552;28;20234;-45
2022/11/08 00:34:23;;;;;;;5.65;5.20;;;;;;;8.59;100.00;98407.34;4149775;28;20645;-46
2022/11/08 00:36:28;;;;;;;6.18;5.68;;;;;;;8.67;100.00;98412.44;4163626;28;20295;-46
2022/11/08 00:38:30;;;;;;;6.40;5.80;;;;;;;8.56;100.00;98407.84;4149758;28;20233;-45
2022/11/08 00:40:33;;;;;;;6.03;4.57;;;;;;;8.71;100.00;98405.44;4165292;28;20721;-45
2022/11/08 00:42:35;;;;;;;7.38;5.03;;;;;;;8.68;100.00;98405.94;4167244;28;20228;-45
2022/11/08 00:44:40;;;;;;;18.35;4.78;;;;;;;8.52;100.00;98401.19;4153504;28;20204;-46
2022/11/08 00:46:41;;;;;;;5.57;5.13;;;;;;;8.47;100.00;98404.66;4154739;28;20240;-45
2022/11/08 00:48:43;;;;;;;5.03;4.60;;;;;;;8.39;100.00;98396.00;4145250;28;20228;-45
2022/11/08 00:50:45;;;;;;;5.07;4.07;;;;;;;8.37;100.00;98395.41;4149198;28;20304;-45
2022/11/08 00:52:46;;;;;;;4.68;4.32;;;;;;;8.34;100.00;98395.91;4155122;28;20886;-45
2022/11/08 00:54:48;;;;;;;5.90;5.13;;;;;;;8.34;100.00;98388.56;4152483;28;20620;-45
2022/11/08 00:56:50;;;;;;;5.35;4.93;;;;;;;8.23;100.00;98386.66;4154496;28;20299;-45
2022/11/08 00:58:51;;;;;;;5.20;4.60;;;;;;;8.35;100.00;98389.38;4151623;28;20207;-46
2022/11/08 01:00:54;;;;;;;5.57;5.10;;;;;;;8.29;100.00;98390.34;4148830;28;20212;-45
2022/11/08 01:05:16;;;;;;;5.57;5.07;;;;;;;8.17;100.00;98387.59;4145378;28;20300;-45
2022/11/08 01:07:17;;;;;;;5.18;4.72;;;;;;;8.13;100.00;98380.94;4164739;28;20216;-45
2022/11/08 01:09:19;;;;;;;5.10;4.57;;;;;;;8.19;100.00;98384.63;4152013;28;20247;-45
2022/11/08 01:11:22;;;;;;;4.47;4.07;;;;;;;8.11;100.00;98376.81;4152452;28;20267;-45
2022/11/08 01:13:24;;;;;;;5.00;4.60;;;;;;;8.03;100.00;98388.06;4150727;28;20233;-45
2022/11/08 01:15:26;;;;;;;4.75;4.28;;;;;;;8.01;100.00;98387.47;4152778;28;20223;-48
2022/11/08 01:17:30;;;;;;;9.02;4.07;;;;;;;8.01;100.00;98373.88;4168973;28;20218;-46
2022/11/08 01:19:32;;;;;;;3.92;3.40;;;;;;;8.04;100.00;98374.22;4154206;28;20655;-45
2022/11/08 01:21:34;;;;;;;4.63;4.22;;;;;;;7.97;100.00;98378.13;4156052;28;20209;-45
2022/11/08 01:23:36;;;;;;;4.00;3.60;;;;;;;7.95;100.00;98369.34;4149965;28;20213;-46
2022/11/08 01:25:39;;;;;;;3.33;3.03;;;;;;;7.85;100.00;98369.94;4155089;28;20236;-45
2022/11/08 01:27:42;;;;;;;8.23;4.28;;;;;;;7.89;100.00;98370.31;4150245;28;20204;-45
2022/11/08 01:29:44;;;;;;;2.95;2.75;;;;;;;7.78;100.00;98369.22;4150556;28;20225;-46
2022/11/08 01:31:46;;;;;;;3.90;3.47;;;;;;;7.75;100.00;98371.59;4149948;28;20358;-46
2022/11/08 01:33:48;;;;;;;4.70;4.30;;;;;;;7.70;100.00;98371.47;4151421;28;20295;-45
2022/11/08 01:35:52;;;;;;;10.70;4.05;;;;;;;7.74;100.00;98369.91;4154840;28;20216;-46
2022/11/08 01:37:54;;;;;;;3.53;2.50;;;;;;;7.68;100.00;98368.97;4153746;28;20323;-45
2022/11/08 01:39:56;;;;;;;3.90;3.60;;;;;;;7.62;100.00;98377.28;4151733;28;20300;-45
2022/11/08 01:41:58;;;;;;;3.50;3.10;;;;;;;7.71;100.00;98376.69;4154853;28;20236;-46
2022/11/08 01:43:59;;;;;;;3.55;3.25;;;;;;;7.70;100.00;98377.72;4156072;28;20217;-45
2022/11/08 01:46:19;;;;;;;3.53;3.22;;;;;;;7.70;100.00;98368.75;4152217;28;20214;-45
2022/11/08 01:48:22;;;;;;;4.43;4.07;;;;;;;7.76;100.00;98368.63;4156171;28;20575;-45
2022/11/08 01:50:24;;;;;;;3.70;3.40;;;;;;;7.74;100.00;98367.19;4152592;28;20248;-45
2022/11/08 01:52:32;;;;;;;8.90;2.85;;;;;;;7.65;100.00;98361.28;4166439;28;20264;-45
2022/11/08 01:54:58;;;;;;;3.63;3.25;;;;;;;7.65;100.00;98363.16;4152498;28;20282;-45
2022/11/08 01:57:01;;;;;;;4.03;3.72;;;;;;;7.63;100.00;98368.03;4155078;28;20288;-45
2022/11/08 01:59:05;;;;;;;3.80;3.50;;;;;;;7.70;100.00;98357.84;4149889;28;20312;-45
2022/11/08 02:01:07;;;;;;;4.20;3.42;;;;;;;7.66;100.00;98362.09;4150554;28;20304;-46
2022/11/08 02:03:11;;;;;;;3.72;3.28;;;;;;;7.55;100.00;98349.31;4152987;28;20278;-46
2022/11/08 02:05:33;;;;;;;2.70;2.50;;;;;;;7.50;100.00;98346.47;4150459;28;20683;-45
2022/11/08 02:07:35;;;;;;;3.92;3.67;;;;;;;7.49;100.00;98355.69;4151538;28;20235;-45
2022/11/08 02:09:39;;;;;;;5.80;3.65;;;;;;;7.54;100.00;98353.09;4155852;28;20725;-45
2022/11/08 02:11:41;;;;;;;3.40;2.90;;;;;;;7.51;100.00;98343.53;4149198;28;20264;-45
2022/11/08 02:13:43;;;;;;;3.78;3.40;;;;;;;7.42;100.00;98344.09;4151352;28;20208;-46
2022/11/08 02:15:45;;;;;;;3.35;3.03;;;;;;;7.36;100.00;98339.59;4154674;28;20756;-45
2022/11/08 02:17:46;;;;;;;3.90;3.60;;;;;;;7.34;100.00;98338.97;4150508;28;20249;-45
2022/11/08 02:19:49;;;;;;;3.72;3.42;;;;;;;7.34;100.00;98330.81;4168250;28;20316;-46
2022/11/08 02:21:57;;;;;;;5.18;3.85;;;;;;;7.24;100.00;98333.28;4149467;28;20236;-45
2022/11/08 02:24:07;;;;;;;2.65;2.45;;;;;;;7.33;100.00;98335.44;4151778;28;20205;-46
2022/11/08 02:26:09;;;;;;;9.65;3.67;;;;;;;7.20;100.00;98340.25;4167805;28;20223;-45
2022/11/08 02:28:10;;;;;;;3.55;3.25;;;;;;;7.25;100.00;98329.50;4151486;28;20375;-46
2022/11/08 02:30:12;;;;;;;7.05;3.88;;;;;;;7.13;100.00;98323.19;4150395;28;20356;-45
2022/11/08 02:32:14;;;;;;;3.35;3.13;;;;;;;7.14;100.00;98327.56;4151993;28;20256;-45
2022/11/08 02:34:16;;;;;;;3.67;3.38;;;;;;;7.20;100.00;98323.91;4151853;28;20239;-45
2022/11/08 02:36:22;;;;;;;3.10;2.90;;;;;;;7.24;100.00;98322.41;4163946;28;20309;-46
2022/11/08 02:38:25;;;;;;;3.92;3.55;;;;;;;7.07;100.00;98316.81;4153883;28;20219;-45
2022/11/08 02:40:26;;;;;;;3.33;2.72;;;;;;;7.11;100.00;98309.00;4154723;28;20211;-46
2022/11/08 02:42:28;;;;;;;4.03;3.40;;;;;;;7.02;100.00;98315.84;4152837;28;20425;-45
2022/11/08 02:44:30;;;;;;;4.47;3.58;;;;;;;7.03;100.00;98301.19;4148383;28;20209;-45
2022/11/08 02:46:32;;;;;;;4.25;3.83;;;;;;;7.05;100.00;98307.22;4155932;28;20288;-45
2022/11/08 02:48:33;;;;;;;6.45;3.38;;;;;;;6.94;100.00;98305.28;4147274;28;20243;-45
2022/11/08 02:50:35;;;;;;;6.35;4.10;;;;;;;6.97;100.00;98304.81;4148825;28;20953;-46
2022/11/08 02:52:37;;;;;;;3.78;3.47;;;;;;;6.96;100.00;98305.91;4150162;28;20671;-45
2022/11/08 02:54:39;;;;;;;4.28;3.90;;;;;;;6.98;100.00;98301.88;4150441;28;20251;-45
2022/11/08 02:56:40;;;;;;;6.15;3.25;;;;;;;6.94;100.00;98302.56;4167804;28;20242;-45
2022/11/08 02:58:42;;;;;;;3.05;2.85;;;;;;;6.91;100.00;98297.59;4153341;28;20411;-46
2022/11/08 03:00:44;;;;;;;5.55;3.38;;;;;;;6.89;100.00;98294.28;4153252;28;20272;-45
2022/11/08 03:02:50;;;;;;;3.97;3.50;;;;;;;6.87;100.00;98291.78;4132036;28;20240;-46
2022/11/08 03:04:51;;;;;;;4.35;2.40;;;;;;;6.81;100.00;98286.44;4149954;28;20209;-45
2022/11/08 03:06:53;;;;;;;2.53;2.33;;;;;;;6.75;100.00;98281.94;4150992;28;20344;-45
2022/11/08 03:08:55;;;;;;;2.58;2.38;;;;;;;6.72;100.00;98277.81;4152810;28;20221;-45
2022/11/08 03:10:59;;;;;;;4.60;2.67;;;;;;;6.69;100.00;98289.13;4149816;28;20694;-45
2022/11/08 03:13:03;;;;;;;2.80;2.58;;;;;;;6.64;100.00;98291.72;4150845;28;20229;-46
2022/11/08 03:15:06;;;;;;;2.75;2.53;;;;;;;6.74;100.00;98281.09;4165695;28;20227;-45
2022/11/08 03:17:08;;;;;;;4.30;3.40;;;;;;;6.80;100.00;98279.34;4155520;28;20205;-46
2022/11/08 03:19:10;;;;;;;3.13;2.78;;;;;;;6.66;100.00;98284.16;4166060;28;20294;-46
2022/11/08 03:21:12;;;;;;;3.78;3.42;;;;;;;6.64;100.00;98274.56;4147036;28;20208;-45
2022/11/08 03:23:14;;;;;;;3.92;3.63;;;;;;;6.59;100.00;98274.44;4147650;28;20717;-45
2022/11/08 03:25:16;;;;;;;3.50;3.28;;;;;;;6.58;100.00;98268.19;4150254;28;20551;-45
2022/11/08 03:27:18;;;;;;;4.38;3.97;;;;;;;6.68;100.00;98259.47;4152797;28;20876;-45
2022/11/08 03:29:19;;;;;;;3.67;3.20;;;;;;;6.74;100.00;98263.94;4153608;28;20224;-45
2022/11/08 03:31:21;;;;;;;4.07;3.42;;;;;;;6.73;100.00;98262.31;4148867;28;20201;-45
2022/11/08 03:33:23;;;;;;;3.80;3.53;;;;;;;6.65;100.00;98255.31;4150999;28;20345;-45
2022/11/08 03:35:25;;;;;;;3.85;3.55;;;;;;;6.66;100.00;98261.56;4130352;28;20364;-46
2022/11/08 03:37:26;;;;;;;4.00;3.70;;;;;;;6.64;100.00;98261.81;4165860;28;20304;-45
2022/11/08 03:39:28;;;;;;;5.28;3.20;;;;;;;6.72;100.00;98256.06;4150577;28;20351;-45
2022/11/08 03:41:30;;;;;;;3.75;3.45;;;;;;;6.67;100.00;98257.78;4149610;28;20296;-45
2022/11/08 03:43:31;;;;;;;10.30;3.88;;;;;;;6.58;100.00;98265.47;4150351;28;20323;-46
2022/11/08 03:45:33;;;;;;;2.58;2.47;;;;;;;6.60;100.00;98257.06;4150929;28;20248;-48
2022/11/08 03:47:39;;;;;;;4.90;3.15;;;;;;;6.64;100.00;98260.97;4163056;28;21684;-45
2022/11/08 03:49:41;;;;;;;3.95;3.25;;;;;;;6.59;100.00;98255.41;4151316;28;20304;-45
2022/11/08 03:51:43;;;;;;;5.13;2.50;;;;;;;6.51;100.00;98256.56;4129898;28;20586;-45
2022/11/08 03:53:44;;;;;;;3.70;3.50;;;;;;;6.53;100.00;98256.31;4151558;28;20644;-45
2022/11/08 03:55:46;;;;;;;2.78;2.53;;;;;;;6.52;100.00;98258.22;4151521;28;20692;-45
2022/11/08 03:57:48;;;;;;;2.97;2.67;;;;;;;6.50;100.00;98256.81;4150691;28;20644;-45
2022/11/08 03:59:50;;;;;;;2.72;2.50;;;;;;;6.48;100.00;98253.50;4164913;28;20287;-45
2022/11/08 04:01:52;;;;;;;2.97;2.78;;;;;;;6.48;100.00;98253.50;4150263;28;20315;-45
2022/11/08 04:03:54;;;;;;;2.72;2.35;;;;;;;6.51;100.00;98258.44;4150790;28;20390;-45
2022/11/08 04:05:55;;;;;;;10.77;2.33;;;;;;;6.43;100.00;98250.63;4149815;28;20282;-45
2022/11/08 04:07:58;;;;;;;2.25;2.08;;;;;;;6.43;100.00;98253.34;4150891;28;20323;-46
2022/11/08 04:10:01;;;;;;;2.20;2.00;;;;;;;6.40;100.00;98256.50;4150220;28;20236;-45
2022/11/08 04:16:43;;;;;;;2.85;1.98;;;;;;;6.26;100.00;98255.03;4160982;28;20319;-45
2022/11/08 04:21:21;;;;;;;1.75;1.65;;;;;;;6.22;100.00;98246.50;4147653;28;20308;-45
2022/11/08 04:23:23;;;;;;;2.10;1.88;;;;;;;6.24;100.00;98252.53;4166886;28;20206;-45
2022/11/08 04:25:24;;;;;;;2.00;1.90;;;;;;;6.16;100.00;98249.31;4154632;28;20232;-45
2022/11/08 04:27:29;;;;;;;2.00;1.90;;;;;;;6.23;100.00;98244.63;4150405;28;20245;-47
2022/11/08 04:29:31;;;;;;;2.38;2.22;;;;;;;6.18;100.00;98245.31;4149597;28;20216;-45
2022/11/08 04:31:33;;;;;;;2.15;2.00;;;;;;;6.17;100.00;98245.53;4148246;28;20666;-46
2022/11/08 04:33:34;;;;;;;2.08;1.98;;;;;;;6.06;100.00;98235.44;4168283;28;20682;-45
2022/11/08 04:35:36;;;;;;;2.78;2.58;;;;;;;6.11;100.00;98241.88;4147293;28;20291;-45
2022/11/08 04:37:38;;;;;;;2.30;2.10;;;;;;;6.24;100.00;98240.84;4151625;28;20251;-45
2022/11/08 04:39:40;;;;;;;1.90;1.80;;;;;;;6.16;100.00;98239.28;4150106;28;20247;-45
2022/11/08 04:41:41;;;;;;;2.40;2.20;;;;;;;5.95;100.00;98231.59;4151422;28;20885;-45
2022/11/08 04:43:43;;;;;;;2.33;2.13;;;;;;;5.99;100.00;98237.41;4162106;28;20264;-46
2022/11/08 04:45:45;;;;;;;1.73;1.63;;;;;;;5.93;100.00;98239.16;4147339;28;20595;-46
2022/11/08 04:47:47;;;;;;;1.85;1.75;;;;;;;6.01;100.00;98235.28;4142076;28;20803;-45
2022/11/08 04:49:49;;;;;;;1.77;1.67;;;;;;;6.01;100.00;98227.16;4162103;28;20232;-45
2022/11/08 04:51:51;;;;;;;2.45;2.25;;;;;;;6.09;100.00;98221.41;4150361;28;20224;-45
2022/11/08 04:53:57;;;;;;;2.00;1.63;;;;;;;6.04;100.00;98229.41;4138663;28;20584;-45
2022/11/08 04:56:04;;;;;;;1.92;1.83;;;;;;;6.19;100.00;98222.53;4138356;28;20220;-46
2022/11/08 04:58:08;;;;;;;1.98;1.88;;;;;;;6.03;100.00;98222.34;4156519;28;20239;-46
2022/11/08 05:00:10;;;;;;;2.22;1.98;;;;;;;6.02;100.00;98226.13;4155484;28;20542;-45
2022/11/08 05:02:12;;;;;;;2.00;1.90;;;;;;;6.10;100.00;98217.66;4152961;28;20263;-46
2022/11/08 05:04:14;;;;;;;2.55;2.35;;;;;;;6.03;100.00;98211.47;4155951;28;20230;-45
2022/11/08 05:06:19;;;;;;;2.35;2.17;;;;;;;6.12;100.00;98210.09;4154466;28;20244;-45
2022/11/08 05:08:21;;;;;;;2.88;2.20;;;;;;;5.98;100.00;98208.59;4164834;28;20214;-45
2022/11/08 05:10:22;;;;;;;2.72;1.98;;;;;;;5.90;100.00;98214.34;4135564;28;20319;-46
2022/11/08 05:12:24;;;;;;;2.67;2.47;;;;;;;5.96;100.00;98208.00;4149748;28;20255;-45
2022/11/08 05:14:26;;;;;;;2.72;2.55;;;;;;;5.94;100.00;98201.97;4149961;28;20208;-45
2022/11/08 05:16:30;;;;;;;2.10;2.00;;;;;;;6.05;100.00;98193.91;4150252;28;20232;-45
2022/11/08 05:18:32;;;;;;;1.85;1.75;;;;;;;5.63;100.00;98199.41;4148109;28;20259;-45
2022/11/08 05:25:20;;;;;;;4.80;4.40;;;;;;;5.71;100.00;98188.25;4151475;28;20213;-45
2022/11/08 05:27:21;;;;;;;7.88;5.00;;;;;;;5.70;100.00;98183.88;4150231;28;20247;-45
2022/11/08 05:29:23;;;;;;;5.70;5.20;;;;;;;5.75;100.00;98181.31;4147357;28;20227;-45
2022/11/08 05:31:25;;;;;;;5.95;5.35;;;;;;;5.77;100.00;98171.06;4168032;28;20231;-46
2022/11/08 05:33:27;;;;;;;6.32;4.38;;;;;;;5.79;100.00;98166.22;4168680;28;20290;-46
2022/11/08 05:35:29;;;;;;;4.78;4.38;;;;;;;5.81;100.00;98164.97;4155888;28;20248;-45
2022/11/08 05:37:30;;;;;;;3.65;3.33;;;;;;;5.81;100.00;98169.56;4150284;28;20295;-45
2022/11/08 05:39:32;;;;;;;5.35;4.20;;;;;;;5.78;100.00;98167.28;4148022;28;20233;-45
2022/11/08 05:41:34;;;;;;;3.72;3.10;;;;;;;5.72;100.00;98170.91;4167591;28;20209;-45
2022/11/08 05:43:36;;;;;;;4.18;3.50;;;;;;;5.76;100.00;98164.78;4158070;28;20244;-45
2022/11/08 05:45:38;;;;;;;3.53;2.55;;;;;;;5.76;100.00;98172.09;4157006;28;20825;-45
2022/11/08 05:47:44;;;;;;;4.03;3.65;;;;;;;5.67;100.00;98165.31;4161472;28;20262;-45
2022/11/08 05:49:45;;;;;;;4.05;3.70;;;;;;;5.69;100.00;98160.50;4152529;28;20214;-45
2022/11/08 05:51:47;;;;;;;5.60;4.07;;;;;;;5.69;100.00;98165.94;4153451;28;20220;-45
2022/11/08 05:53:49;;;;;;;6.75;4.38;;;;;;;5.60;100.00;98173.56;4169348;28;20303;-45
2022/11/08 05:55:57;;;;;;;6.40;5.40;;;;;;;5.68;100.00;98175.09;4170999;28;20239;-45
2022/11/08 05:57:58;;;;;;;4.95;4.45;;;;;;;5.60;100.00;98178.13;4157382;28;20728;-45
2022/11/08 06:00:00;;;;;;;6.07;4.88;;;;;;;5.63;100.00;98172.28;4169477;28;20212;-46
2022/11/08 06:02:02;;;;;;;3.67;3.22;;;;;;;5.59;100.00;98179.19;4150807;28;20271;-46
2022/11/08 06:04:04;;;;;;;3.45;3.05;;;;;;;5.67;100.00;98178.88;4148982;28;20632;-46
2022/11/08 06:06:09;;;;;;;3.35;2.58;;;;;;;5.59;100.00;98185.47;4151492;28;20209;-45
2022/11/08 06:08:10;;;;;;;2.65;2.40;;;;;;;5.53;100.00;98178.22;4157070;28;20690;-46
2022/11/08 06:10:12;;;;;;;2.85;2.55;;;;;;;5.56;100.00;98171.53;4155841;28;20252;-46
2022/11/08 06:12:14;;;;;;;3.25;2.80;;;;;;;5.46;100.00;98174.75;4150412;28;20322;-46
2022/11/08 06:14:17;;;;;;;8.27;4.47;;;;;;;5.49;100.00;98176.19;4156109;28;20264;-45
2022/11/08 06:16:20;;;;;;;7.85;5.45;;;;;;;5.57;100.00;98178.59;4154245;28;20213;-45
2022/11/08 06:18:22;;;;;;;15.52;7.38;;;;;;;5.62;100.00;98173.34;4141519;28;20716;-46
2022/11/08 06:20:24;;;;;;;7.65;6.47;;;;;;;5.26;100.00;98176.03;4153844;28;20263;-45
2022/11/08 06:22:30;;;;;;;9.70;6.80;;;;;;;5.45;100.00;98162.25;4124520;28;20277;-46
2022/11/08 06:24:31;;;;;;;12.93;6.63;;;;;;;5.43;100.00;98171.69;4138908;28;20304;-45
2022/11/08 06:26:34;;;;;;;6.82;5.35;;;;;;;5.47;100.00;98168.28;4132260;28;20216;-45
2022/11/08 06:28:35;;;;;;;8.43;5.32;;;;;;;5.53;100.00;98174.66;4130714;28;20209;-45
2022/11/08 06:30:38;;;;;;;6.65;5.20;;;;;;;5.73;100.00;98172.56;4131527;28;20292;-45
2022/11/08 06:32:40;;;;;;;5.35;4.05;;;;;;;5.34;100.00;98170.28;4135226;28;20237;-45
2022/11/08 06:34:41;;;;;;;8.20;4.63;;;;;;;5.40;100.00;98167.53;4136256;28;20249;-45
2022/11/08 06:36:43;;;;;;;5.07;4.68;;;;;;;5.43;100.00;98171.69;4135469;28;20770;-45
2022/11/08 06:38:45;;;;;;;6.00;5.40;;;;;;;5.51;100.00;98171.38;4151810;28;20865;-46
2022/11/08 06:40:47;;;;;;;4.85;4.00;;;;;;;5.61;100.00;98171.66;4136774;28;20730;-46
2022/11/08 06:42:49;;;;;;;6.45;5.85;;;;;;;5.63;100.00;98166.84;4134442;28;20233;-46
2022/11/08 06:44:51;;;;;;;5.63;5.03;;;;;;;5.68;100.00;98164.25;4119207;28;20225;-47
2022/11/08 06:46:56;;;;;;;5.63;5.13;;;;;;;5.66;100.00;98158.22;4135101;28;20264;-46
2022/11/08 06:49:01;;;;;;;10.00;5.72;;;;;;;5.71;100.00;98158.38;4136803;28;20240;-46
2022/11/08 06:51:02;;;;;;;7.25;6.53;;;;;;;5.76;100.00;98161.25;4137025;28;20261;-46
2022/11/08 06:53:06;;;;;;;6.68;6.07;;;;;;;5.85;100.00;98170.75;4119042;28;20229;-46
2022/11/08 06:55:08;;;;;;;10.90;5.82;;;;;;;5.85;100.00;98159.91;4136922;28;20759;-46
2022/11/08 06:57:10;;;;;;;6.82;5.72;;;;;;;5.83;100.00;98162.03;4137564;28;20215;-47
2022/11/08 06:59:11;;;;;;;6.90;5.93;;;;;;;5.88;100.00;98164.91;4120704;28;20736;-47
2022/11/08 07:01:13;;;;;;;4.32;4.03;;;;;;;5.87;100.00;98165.91;4149501;28;20205;-46
2022/11/08 07:03:15;;;;;;;4.35;3.72;;;;;;;5.94;100.00;98163.94;4148103;28;20378;-46
2022/11/08 07:05:17;;;;;;;3.75;3.55;;;;;;;5.95;100.00;98165.63;4118735;28;20772;-46
2022/11/08 07:07:19;;;;;;;3.60;2.85;;;;;;;5.91;100.00;98169.84;4147273;28;20244;-46
2022/11/08 07:09:21;;;;;;;3.53;3.05;;;;;;;5.89;100.00;98163.81;4115450;28;20245;-46
2022/11/08 07:11:23;;;;;;;3.75;2.78;;;;;;;5.71;100.00;98166.53;4116549;28;20217;-46
2022/11/08 07:13:24;;;;;;;7.88;3.45;;;;;;;5.89;100.00;98164.63;4134949;28;20660;-45
2022/11/08 07:15:26;;;;;;;4.60;4.20;;;;;;;6.04;100.00;98164.25;4129599;28;20226;-46
2022/11/08 07:17:28;;;;;;;4.43;4.03;;;;;;;6.11;100.00;98164.97;4129358;28;20210;-46
2022/11/08 07:19:36;;;;;;;2.83;2.60;;;;;;;6.74;100.00;98160.63;4138791;28;20205;-46
2022/11/08 07:21:37;;;;;;;2.53;2.33;;;;;;;6.97;100.00;98160.69;4136176;28;20213;-46
2022/11/08 07:23:41;;;;;;;2.17;2.08;;;;;;;7.40;100.00;98155.66;4146915;28;20197;-45
2022/11/08 07:25:42;;;;;;;1.42;1.33;;;;;;;7.79;100.00;98160.34;4133943;28;20206;-46
2022/11/08 07:27:44;;;;;;;2.35;1.60;;;;;;;8.23;100.00;98162.34;4147740;28;20205;-46
2022/11/08 07:29:46;;;;;;;1.88;1.75;;;;;;;8.08;100.00;98170.22;4123852;28;20233;-46
2022/11/08 07:31:47;;;;;;;3.25;2.17;;;;;;;7.92;100.00;98165.50;4152964;28;20655;-47
2022/11/08 07:33:55;;;;;;;5.53;3.55;;;;;;;7.72;100.00;98162.38;4139189;28;20308;-46
2022/11/08 07:35:58;;;;;;;7.00;3.72;;;;;;;7.56;100.00;98176.75;4136761;28;20231;-46
2022/11/08 07:37:59;;;;;;;4.95;4.40;;;;;;;7.43;100.00;98177.78;4126189;28;20301;-45
2022/11/08 07:40:01;;;;;;;3.85;3.55;;;;;;;7.36;100.00;98181.72;4150709;28;20228;-46
2022/11/08 07:42:04;;;;;;;2.88;2.65;;;;;;;7.19;100.00;98192.50;4137149;28;20688;-45
2022/11/08 07:44:05;;;;;;;3.22;3.03;;;;;;;7.10;100.00;98193.09;4140370;28;20671;-46
2022/11/08 07:46:07;;;;;;;2.67;2.47;;;;;;;7.14;100.00;98189.66;4138861;28;20201;-46
2022/11/08 07:48:11;;;;;;;3.15;2.13;;;;;;;6.94;100.00;98196.47;4152531;28;20212;-45
2022/11/08 07:50:14;;;;;;;3.55;3.25;;;;;;;6.87;100.00;98206.66;4153332;28;20694;-47
2022/11/08 07:52:21;;;;;;;6.05;2.85;;;;;;;6.87;100.00;98214.81;4141222;28;20544;-47
2022/11/08 07:54:23;;;;;;;2.63;2.42;;;;;;;6.82;100.00;98206.53;4136644;28;20625;-46
2022/11/08 07:56:25;;;;;;;6.10;2.30;;;;;;;6.83;100.00;98219.06;4133727;28;20201;-46
2022/11/08 07:58:30;;;;;;;5.80;3.00;;;;;;;6.83;100.00;98203.56;4124114;28;20224;-46
2022/11/08 08:00:37;;;;;;;3.03;2.80;;;;;;;6.88;100.00;98216.50;4136154;28;20224;-47
2022/11/08 08:02:39;;;;;;;3.20;2.40;;;;;;;6.84;100.00;98215.28;4141638;28;20271;-46
2022/11/08 08:04:41;;;;;;;3.47;2.72;;;;;;;7.19;100.00;98221.59;4153011;28;20209;-46
2022/11/08 08:06:43;;;;;;;2.83;2.50;;;;;;;7.29;100.00;98208.25;4140928;28;20667;-47
2022/11/08 08:08:45;;;;;;;3.50;3.20;;;;;;;7.25;100.00;98207.88;4141555;28;20206;-47
2022/11/08 08:10:47;;;;;;;3.17;2.88;;;;;;;7.29;100.00;98208.25;4136760;28;20224;-46
2022/11/08 08:12:49;;;;;;;2.30;2.10;;;;;;;7.39;100.00;98203.00;4149723;28;20355;-46
2022/11/08 08:14:50;;;;;;;2.17;1.85;;;;;;;7.43;100.00;98210.47;4137926;28;20488;-46
2022/11/08 08:16:52;;;;;;;3.13;2.65;;;;;;;7.61;100.00;98204.06;4137411;28;20236;-49
2022/11/08 08:18:54;;;;;;;2.10;1.98;;;;;;;7.94;100.00;98204.22;4148616;28;20866;-47
2022/11/08 08:20:57;;;;;;;2.30;2.00;;;;;;;8.00;100.00;98211.44;4128694;28;20202;-46
2022/11/08 08:23:00;;;;;;;4.88;2.28;;;;;;;8.16;100.00;98216.13;4145493;28;20255;-47
2022/11/08 08:25:01;;;;;;;4.00;2.10;;;;;;;8.04;100.00;98212.63;4147575;28;20204;-47
2022/11/08 08:27:04;;;;;;;2.13;1.90;;;;;;;8.14;100.00;98201.91;4135376;28;20300;-46
2022/11/08 08:29:05;;;;;;;3.47;1.90;;;;;;;8.14;100.00;98200.03;4135038;28;20241;-47
2022/11/08 08:31:07;;;;;;;2.83;1.77;;;;;;;8.24;100.00;98210.34;4136389;28;20309;-46
2022/11/08 08:33:14;;;;;;;3.50;3.28;;;;;;;8.29;100.00;98210.44;4151165;28;20312;-47
2022/11/08 08:35:29;;;;;;;3.38;2.88;;;;;;;8.94;100.00;98219.84;4135733;28;20272;-47
2022/11/08 08:37:31;;;;;;;3.85;3.55;;;;;;;9.37;100.00;98214.53;4150408;28;20300;-47
2022/11/08 08:39:32;;;;;;;4.28;3.97;;;;;;;10.24;100.00;98219.03;4151053;28;20282;-47
2022/11/08 08:41:34;;;;;;;4.13;3.72;;;;;;;10.53;100.00;98212.25;4134841;28;20235;-47
2022/11/08 08:43:36;;;;;;;4.35;3.95;;;;;;;11.37;100.00;98218.53;4135728;28;20213;-47
2022/11/08 08:45:39;;;;;;;3.13;2.83;;;;;;;11.27;95.43;98201.22;4118769;28;20210;-47
2022/11/08 08:47:52;;;;;;;4.28;3.67;;;;;;;11.95;97.27;98210.19;4135439;28;20206;-46
2022/11/08 08:49:54;;;;;;;4.07;3.17;;;;;;;12.72;93.92;98205.56;4139021;28;20209;-47
2022/11/08 08:51:56;;;;;;;3.13;2.75;;;;;;;12.85;91.22;98210.50;4135106;28;20315;-46
2022/11/08 08:53:58;;;;;;;9.43;3.22;;;;;;;13.19;91.16;98200.72;4147727;28;20844;-47
2022/11/08 08:56:01;;;;;;;4.25;2.65;;;;;;;12.92;85.90;98200.09;4138559;28;20247;-46
2022/11/08 08:58:03;;;;;;;3.05;2.72;;;;;;;13.29;86.39;98205.38;4137438;28;20265;-46
2022/11/08 09:00:05;;;;;;;2.78;2.10;;;;;;;13.86;85.38;98203.94;4142117;28;20277;-46
2022/11/08 09:02:27;;;;;;;2.90;2.17;;;;;;;14.52;85.07;98221.91;4138500;28;20315;-45
2022/11/08 09:04:29;;;;;;;2.90;2.65;;;;;;;14.05;83.75;98209.66;4151001;28;20243;-45
2022/11/08 09:06:31;;;;;;;3.17;2.63;;;;;;;14.70;83.47;98199.22;4139679;28;20243;-45
2022/11/08 09:08:32;;;;;;;3.22;2.25;;;;;;;14.99;81.20;98202.91;4137176;28;20214;-45
2022/11/08 09:10:34;;;;;;;2.33;2.13;;;;;;;15.57;81.21;98201.91;4121887;28;20230;-45
2022/11/08 09:12:37;;;;;;;2.35;2.08;;;;;;;15.55;78.61;98197.81;4140084;28;20650;-44
2022/11/08 09:14:38;;;;;;;1.42;1.33;;;;;;;15.64;78.92;98207.91;4137106;28;20217;-45
2022/11/08 09:16:40;;;;;;;3.90;2.58;;;;;;;15.07;74.33;98205.06;4138391;28;20248;-45
2022/11/08 09:18:42;;;;;;;1.63;1.50;;;;;;;15.70;76.87;98209.50;4137756;28;20241;-45
2022/11/08 09:20:44;;;;;;;2.03;1.02;;;;;;;15.52;75.47;98204.72;4133977;28;20305;-45
2022/11/08 09:22:46;;;;;;;1.08;0.77;;;;;;;14.96;72.60;98205.41;4133264;28;20233;-45
2022/11/08 09:24:48;;;;;;;0.55;0.55;;;;;;;15.76;76.23;98211.09;4150329;28;20245;-46
2022/11/08 09:26:52;;;;;;;0.90;0.80;;;;;;;15.60;71.95;98204.09;4149274;28;20241;-45
2022/11/08 09:28:54;;;;;;;0.93;0.70;;;;;;;15.70;73.05;98205.94;4138531;28;20206;-45
2022/11/08 09:30:59;;;;;;;0.40;0.40;;;;;;;15.72;71.05;98204.53;4150075;28;20732;-45
2022/11/08 09:33:01;;;;;;;0.50;0.50;;;;;;;15.85;71.13;98195.59;4128751;28;20325;-45
2022/11/08 09:35:03;;;;;;;0.75;0.75;;;;;;;15.89;71.92;98210.44;4146461;28;20213;-45
2022/11/08 09:37:05;;;;;;;0.80;0.80;;;;;;;15.68;70.32;98206.22;4137217;28;20300;-45
2022/11/08 09:39:08;;;;;;;0.70;0.70;;;;;;;15.45;70.95;98208.91;4136370;28;20289;-45
2022/11/08 09:42:07;;;;;;;0.50;0.50;;;;;;;15.71;70.19;98202.88;4140864;28;20206;-46
2022/11/08 09:44:11;;;;;;;0.80;0.80;;;;;;;15.69;69.48;98185.78;4120117;28;20630;-47
2022/11/08 09:46:25;;;;;;;0.77;0.77;;;;;;;15.40;68.95;98201.53;4115721;28;20241;-45
2022/11/08 09:48:28;;;;;;;0.70;0.70;;;;;;;15.45;70.65;98190.44;4100766;28;20297;-46
2022/11/08 09:50:44;;;;;;;0.95;0.80;;;;;;;15.23;70.21;98190.03;4130237;28;20261;-45
2022/11/08 09:52:57;;;;;;;0.75;0.73;;;;;;;15.60;70.42;98190.31;4135375;28;20401;-45
2022/11/08 09:55:34;;;;;;;0.77;0.57;;;;;;;15.55;69.06;98198.63;4134663;28;20425;-45
2022/11/08 09:57:51;;;;;;;0.50;0.50;;;;;;;15.83;68.81;98192.28;4137316;28;20244;-45
2022/11/08 10:00:05;;;;;;;3.53;0.95;;;;;;;16.24;67.76;98190.69;4113612;28;20202;-46
2022/11/08 10:02:16;;;;;;;0.80;0.60;;;;;;;16.21;68.29;98201.50;4146360;28;20228;-45
2022/11/08 10:04:21;;;;;;;0.70;0.60;;;;;;;16.29;66.56;98200.88;4118359;28;20229;-45